»·PEaware :: N41G KVNY-KTOA

N41G :: KVNY-KTOA

FLIGHT INFORMATION

Flight Status: Arrived
Operator: Privately registered:
United States
More flights under this callsign
Pilot: Alec D. (17934)
Aircraft: BEECH AIRCRAFT BONANZA
(BE35)
More flights by this aircraft type
Origin: KVNY Van Nuys
United States
Destination: KTOA Zamperini
United States
More flights between these airports :: More routes between these airports
Route: ADAMM2 ADAMM V394 SLI
File this flight plan on PilotEdge
Remarks:
Altitude:
(Current/Filed)
5,000ft
Speed:
(Current/Filed)
165kts
Departed: 16-Jul-19 12:36 PM
Arrived: 16-Jul-19 01:02 PM
Distance/Time
Traveled:
25nm/0:26
Distance/Time
To Go:
Arrived

Flight Plot

Page will automatically refresh every two minutes.


Map Options




Map Legend


Flown Route
Filed Route
Departure Airport
Arrival Airport
Navaid (VOR, NDB)
Fix

Horizontal Profiles

Position Reports

Time Latitude Longitude Heading Altitude Ground
Speed
16-Jul-19 12:12 34.206650 -118.487498 175 805ft 0kts
16-Jul-19 12:13 34.206650 -118.487498 175 805ft 0kts
16-Jul-19 12:14 34.206650 -118.487498 175 805ft 0kts
16-Jul-19 12:15 34.206650 -118.487498 175 805ft 0kts
16-Jul-19 12:16 34.206647 -118.487498 175 805ft 0kts
16-Jul-19 12:18 34.206640 -118.487497 175 805ft 0kts
16-Jul-19 12:19 34.206633 -118.487497 175 805ft 0kts
16-Jul-19 12:20 34.206628 -118.487496 175 805ft 0kts
16-Jul-19 12:21 34.206623 -118.487496 175 805ft 0kts
16-Jul-19 12:22 34.206618 -118.487495 175 805ft 0kts
16-Jul-19 12:23 34.206612 -118.487495 175 805ft 0kts
16-Jul-19 12:24 34.206607 -118.487494 175 805ft 0kts
16-Jul-19 12:25 34.206602 -118.487494 175 805ft 0kts
16-Jul-19 12:26 34.206596 -118.487493 175 805ft 0kts
16-Jul-19 12:27 34.206591 -118.487493 175 805ft 0kts
16-Jul-19 12:28 34.206586 -118.487492 175 805ft 0kts
16-Jul-19 12:29 34.206580 -118.487492 175 805ft 0kts
16-Jul-19 12:30 34.206981 -118.487746 280 805ft 9kts
16-Jul-19 12:31 34.210974 -118.488542 355 805ft 18kts
16-Jul-19 12:32 34.216235 -118.489049 355 805ft 19kts
16-Jul-19 12:33 34.218137 -118.489295 297 805ft 0kts
16-Jul-19 12:34 34.218142 -118.489307 297 805ft 0kts
16-Jul-19 12:35 34.218146 -118.489315 297 805ft 0kts
16-Jul-19 12:35 34.216316 -118.489743 177 805ft 47kts
16-Jul-19 12:37 34.184887 -118.488119 177 1710ft 120kts
16-Jul-19 12:38 34.162696 -118.460926 126 2768ft 123kts
16-Jul-19 12:38 34.144764 -118.431855 129 3464ft 134kts
16-Jul-19 12:39 34.146312 -118.386452 77 4124ft 164kts
16-Jul-19 12:41 34.159259 -118.322579 76 4059ft 159kts
16-Jul-19 12:41 34.156341 -118.279938 110 4032ft 159kts
16-Jul-19 12:42 34.141188 -118.228868 110 4052ft 169kts
16-Jul-19 12:44 34.122240 -118.167196 113 4297ft 161kts
16-Jul-19 12:44 34.109822 -118.124681 108 4876ft 161kts
16-Jul-19 12:45 34.095368 -118.070464 110 5013ft 175kts
16-Jul-19 12:47 34.075434 -118.006425 111 5007ft 169kts
16-Jul-19 12:47 34.059141 -117.964047 147 5021ft 172kts
16-Jul-19 12:48 34.012280 -117.966236 195 5015ft 172kts
16-Jul-19 12:49 33.966784 -117.982093 199 5011ft 167kts
16-Jul-19 12:50 33.922658 -117.999378 199 5012ft 169kts
16-Jul-19 12:51 33.878297 -118.017008 199 5009ft 162kts
16-Jul-19 12:52 33.835939 -118.034341 210 4899ft 158kts
16-Jul-19 12:53 33.811998 -118.080995 241 4101ft 166kts
16-Jul-19 12:54 33.791475 -118.126080 241 4026ft 139kts
16-Jul-19 12:55 33.772009 -118.168921 241 3378ft 156kts
16-Jul-19 12:56 33.751450 -118.216608 245 2285ft 156kts
16-Jul-19 12:57 33.752411 -118.262952 310 1431ft 136kts
16-Jul-19 12:58 33.773579 -118.292250 304 1102ft 86kts
16-Jul-19 12:59 33.787200 -118.313774 305 617ft 76kts
16-Jul-19 13:00 33.799941 -118.333396 305 150ft 69kts
16-Jul-19 13:01 33.805542 -118.342395 281 106ft 15kts
16-Jul-19 13:02 33.805015 -118.346412 278 106ft 10kts
16-Jul-19 13:03 33.804774 -118.347058 216 106ft 0kts
16-Jul-19 13:04 33.804774 -118.347058 216 106ft 0kts

Navigation Log

Ident Type
Flight plan parsing failed, navigation log unavailable